Glencoe, Missouri
Current Conditions -  °F | °C
As of 11:54 AM on Monday 24 Nov 2014 (Local Time) from KSUS Reporting Station
Overcast Overcast  
Wind Chill: 28°   Ceiling: 3300
Heat Index: 39°   Visibility: 10mi
Dew Point: 28°   Wind: 25mph
Humidity: 65%   Direction: 250°WSW
Pressure: 29.68"   Gusts: 36mph
Location:  38.54°N, 90.62°W
Report Text: KSUS 241754Z 25022G31KT 10SM OVC033 04/M02 A2968 RMK AO2 PK WND 26031/1753 SLP054 T00391022 10044 20028 51021
Loading
Personal Weather Stations






























Interactive Weather Map New forecast layout! Learn more

10-Day Weather Forecast

Advertisements
Track Severe Weather on mobile